Terminal Aerodrome Forecast
Issued by NWS Cleveland, OH

Home | Current Version | Previous Version | Text Only | Print | Product List | Glossary Off
Versions: 1 2 3 4 5 6 7 8 9 10 11 12 13 14 15 16 17

000
FTUS41 KCLE 301100
TAFERI
TAF
KERI 301120Z 3012/0112 01006KT P6SM VCSH SCT025 OVC035
     FM301400 36005KT P6SM OVC050
     FM301700 35008KT P6SM -SHRA OVC015
     FM010100 02005KT P6SM SCT050=

USA.gov is the U.S. government's official web portal to all federal, state and local government web resources and services.